Time,TemperatureF,DewpointF,PressureIn,WindDirection,WindDirectionDegrees,WindSpeedMPH,WindSpeedGustMPH,Humidity,HourlyPrecipIn,Conditions,Clouds,dailyrainin,SoftwareType,DateUTC
2013-05-27 00:01:00,42.8,38.9,29.35,North,0,0.0,0.0,86,0.00,RA,,0.00,WeatherDisplay:10.37,2013-05-27 06:01:00,
2013-05-27 00:06:00,42.6,38.7,29.35,ENE,68,0.0,0.0,86,0.00,RA,,0.00,WeatherDisplay:10.37,2013-05-27 06:06:00,
2013-05-27 00:11:00,42.3,38.4,29.35,ENE,68,0.0,0.0,86,0.00,CLR,,0.00,WeatherDisplay:10.37,2013-05-27 06:11:00,
2013-05-27 00:16:00,42.3,38.4,29.35,NE,45,0.0,0.0,86,0.00,CLR,,0.00,WeatherDisplay:10.37,2013-05-27 06:16:00,
2013-05-27 00:21:00,41.9,38.0,29.35,NE,45,0.0,0.0,86,0.00,CLR,,0.00,WeatherDisplay:10.37,2013-05-27 06:21:00,
2013-05-27 00:26:00,41.7,37.8,29.35,NNE,22,0.0,0.0,86,0.00,CLR,,0.00,WeatherDisplay:10.37,2013-05-27 06:26:00,
2013-05-27 00:31:00,41.5,37.7,29.35,NNE,22,0.0,0.0,86,0.00,CLR,,0.00,WeatherDisplay:10.37,2013-05-27 06:31:00,
2013-05-27 00:36:00,41.5,37.7,29.34,NNE,22,0.0,0.0,86,0.00,CLR,,0.00,WeatherDisplay:10.37,2013-05-27 06:36:00,
2013-05-27 00:41:00,41.2,37.3,29.34,ENE,68,0.0,0.0,86,0.00,CLR,,0.00,WeatherDisplay:10.37,2013-05-27 06:41:00,
2013-05-27 00:46:00,41.2,37.3,29.34,East,90,0.0,0.0,86,0.00,CLR,,0.00,WeatherDisplay:10.37,2013-05-27 06:46:00,
2013-05-27 00:51:00,40.8,37.0,29.34,North,0,0.0,0.0,86,0.00,CLR,,0.00,WeatherDisplay:10.37,2013-05-27 06:51:00,
2013-05-27 00:56:00,40.6,36.8,29.33,East,90,0.0,0.0,86,0.00,CLR,,0.00,WeatherDisplay:10.37,2013-05-27 06:56:00,
2013-05-27 01:01:00,40.6,36.8,29.33,ENE,68,0.0,0.0,86,0.00,CLR,,0.00,WeatherDisplay:10.37,2013-05-27 07:01:00,
2013-05-27 01:06:00,40.6,36.8,29.33,ENE,68,0.0,0.0,86,0.00,CLR,,0.00,WeatherDisplay:10.37,2013-05-27 07:06:00,
2013-05-27 01:11:00,40.5,36.6,29.33,East,90,0.0,0.0,86,0.00,CLR,,0.00,WeatherDisplay:10.37,2013-05-27 07:11:00,
2013-05-27 01:16:00,40.5,36.6,29.33,North,0,0.0,0.0,86,0.00,CLR,,0.00,WeatherDisplay:10.37,2013-05-27 07:16:00,
2013-05-27 01:21:00,40.5,36.6,29.33,North,0,0.0,0.0,86,0.00,CLR,,0.00,WeatherDisplay:10.37,2013-05-27 07:21:00,
2013-05-27 01:26:00,40.5,36.6,29.33,NE,45,0.0,0.0,86,0.00,CLR,,0.00,WeatherDisplay:10.37,2013-05-27 07:26:00,
2013-05-27 01:31:00,40.1,36.0,29.33,NNW,338,0.0,0.0,85,0.00,CLR,,0.00,WeatherDisplay:10.37,2013-05-27 07:31:00,
2013-05-27 01:36:00,40.1,36.0,29.33,NE,45,0.0,0.0,85,0.00,CLR,,0.00,WeatherDisplay:10.37,2013-05-27 07:36:00,
2013-05-27 01:41:00,39.9,35.8,29.33,NNE,22,0.0,0.0,85,0.00,CLR,,0.00,WeatherDisplay:10.37,2013-05-27 07:41:00,
2013-05-27 01:46:00,39.7,35.6,29.33,North,0,0.0,0.0,85,0.00,CLR,,0.00,WeatherDisplay:10.37,2013-05-27 07:46:00,
2013-05-27 01:51:00,39.7,35.6,29.33,NNE,22,0.0,0.0,85,0.00,CLR,,0.00,WeatherDisplay:10.37,2013-05-27 07:51:00,
2013-05-27 01:56:00,39.6,35.4,29.33,ENE,68,0.0,0.0,85,0.00,CLR,,0.00,WeatherDisplay:10.37,2013-05-27 07:56:00,
2013-05-27 02:01:00,39.4,35.2,29.33,ENE,68,0.0,0.0,85,0.00,CLR,,0.00,WeatherDisplay:10.37,2013-05-27 08:01:00,
2013-05-27 02:06:00,39.2,35.1,29.33,ENE,68,0.0,0.0,85,0.00,CLR,,0.00,WeatherDisplay:10.37,2013-05-27 08:06:00,
2013-05-27 02:11:00,39.0,34.9,29.33,ENE,68,0.0,0.0,85,0.00,CLR,,0.00,WeatherDisplay:10.37,2013-05-27 08:11:00,
2013-05-27 02:16:00,38.8,34.7,29.33,North,0,0.0,0.0,85,0.00,CLR,,0.00,WeatherDisplay:10.37,2013-05-27 08:16:00,
2013-05-27 02:21:00,38.7,34.5,29.33,NNE,22,0.0,0.0,85,0.00,CLR,,0.00,WeatherDisplay:10.37,2013-05-27 08:21:00,
2013-05-27 02:26:00,38.5,34.4,29.33,ENE,68,0.0,0.0,85,0.00,CLR,,0.00,WeatherDisplay:10.37,2013-05-27 08:26:00,
2013-05-27 02:31:00,38.5,34.4,29.33,NNE,22,0.0,0.0,85,0.00,CLR,,0.00,WeatherDisplay:10.37,2013-05-27 08:31:00,
2013-05-27 02:36:00,38.1,34.0,29.32,NNE,22,0.0,0.0,85,0.00,CLR,,0.00,WeatherDisplay:10.37,2013-05-27 08:36:00,
2013-05-27 02:41:00,38.3,34.2,29.32,NE,45,0.0,0.0,85,0.00,CLR,,0.00,WeatherDisplay:10.37,2013-05-27 08:41:00,
2013-05-27 02:46:00,37.9,33.8,29.32,North,0,0.0,0.0,85,0.00,CLR,,0.00,WeatherDisplay:10.37,2013-05-27 08:46:00,
2013-05-27 02:51:00,37.8,33.7,29.32,SSW,202,0.0,0.0,85,0.00,CLR,,0.00,WeatherDisplay:10.37,2013-05-27 08:51:00,
2013-05-27 02:56:00,37.6,33.2,29.33,North,0,0.0,0.0,84,0.00,CLR,,0.00,WeatherDisplay:10.37,2013-05-27 08:56:00,
2013-05-27 03:01:00,37.6,33.2,29.33,NE,45,0.0,0.0,84,0.00,CLR,,0.00,WeatherDisplay:10.37,2013-05-27 09:01:00,
2013-05-27 03:06:00,37.6,33.2,29.33,NE,45,0.0,0.0,84,0.00,CLR,,0.00,WeatherDisplay:10.37,2013-05-27 09:06:00,
2013-05-27 03:11:00,37.6,33.2,29.33,NE,45,0.0,0.0,84,0.00,CLR,,0.00,WeatherDisplay:10.37,2013-05-27 09:11:00,
2013-05-27 03:16:00,37.4,33.0,29.34,NW,315,0.0,0.0,84,0.00,CLR,,0.00,WeatherDisplay:10.37,2013-05-27 09:16:00,
2013-05-27 03:21:00,37.2,32.8,29.34,NW,315,0.0,0.0,84,0.00,CLR,,0.00,WeatherDisplay:10.37,2013-05-27 09:21:00,
2013-05-27 03:26:00,37.2,32.8,29.34,NW,315,0.0,0.0,84,0.00,CLR,,0.00,WeatherDisplay:10.37,2013-05-27 09:26:00,
2013-05-27 03:31:00,37.2,32.8,29.34,North,0,0.0,0.0,84,0.00,CLR,,0.00,WeatherDisplay:10.37,2013-05-27 09:31:00,
2013-05-27 03:36:00,37.2,32.8,29.33,North,0,0.0,0.0,84,0.00,CLR,,0.00,WeatherDisplay:10.37,2013-05-27 09:36:00,
2013-05-27 03:41:00,37.0,32.7,29.33,North,0,0.0,0.0,84,0.00,CLR,,0.00,WeatherDisplay:10.37,2013-05-27 09:41:00,
2013-05-27 03:46:00,37.0,32.7,29.33,North,0,0.0,0.0,84,0.00,CLR,,0.00,WeatherDisplay:10.37,2013-05-27 09:46:00,
2013-05-27 03:51:00,37.2,32.8,29.33,North,0,0.0,0.0,84,0.00,CLR,,0.00,WeatherDisplay:10.37,2013-05-27 09:51:00,
2013-05-27 03:56:00,37.0,32.7,29.33,North,0,0.0,0.0,84,0.00,CLR,,0.00,WeatherDisplay:10.37,2013-05-27 09:56:00,
2013-05-27 04:01:00,37.0,32.7,29.33,North,0,0.0,0.0,84,0.00,CLR,,0.00,WeatherDisplay:10.37,2013-05-27 10:01:00,
2013-05-27 04:06:00,37.2,32.8,29.33,North,0,0.0,0.0,84,0.00,CLR,,0.00,WeatherDisplay:10.37,2013-05-27 10:06:00,
2013-05-27 04:11:00,37.6,33.2,29.33,North,0,0.0,0.0,84,0.00,CLR,,0.00,WeatherDisplay:10.37,2013-05-27 10:11:00,
2013-05-27 04:16:00,37.6,33.2,29.33,North,0,0.0,0.0,84,0.00,CLR,,0.00,WeatherDisplay:10.37,2013-05-27 10:16:00,
2013-05-27 04:21:00,37.8,33.4,29.33,North,0,0.0,0.0,84,0.00,CLR,,0.00,WeatherDisplay:10.37,2013-05-27 10:21:00,
2013-05-27 04:26:00,37.8,33.4,29.33,North,0,0.0,0.0,84,0.00,CLR,,0.00,WeatherDisplay:10.37,2013-05-27 10:26:00,
2013-05-27 04:31:00,37.8,33.4,29.33,North,0,0.0,0.0,84,0.00,CLR,,0.00,WeatherDisplay:10.37,2013-05-27 10:31:00,
2013-05-27 04:36:00,37.9,33.5,29.33,North,0,0.0,0.0,84,0.00,CLR,,0.00,WeatherDisplay:10.37,2013-05-27 10:36:00,
2013-05-27 04:41:00,38.1,33.4,29.33,North,0,0.0,0.0,83,0.00,CLR,,0.00,WeatherDisplay:10.37,2013-05-27 10:41:00,
2013-05-27 04:46:00,38.3,33.9,29.33,North,0,0.0,0.0,84,0.00,CLR,,0.00,WeatherDisplay:10.37,2013-05-27 10:46:00,
2013-05-27 04:51:00,38.3,33.9,29.33,North,0,0.0,0.0,84,0.00,CLR,,0.00,WeatherDisplay:10.37,2013-05-27 10:51:00,
2013-05-27 04:56:00,38.7,33.9,29.33,East,90,0.0,0.0,83,0.00,CLR,,0.00,WeatherDisplay:10.37,2013-05-27 10:56:00,
2013-05-27 05:01:00,38.7,33.9,29.33,East,90,0.0,0.0,83,0.00,CLR,,0.00,WeatherDisplay:10.37,2013-05-27 11:01:00,
2013-05-27 05:06:00,39.0,34.3,29.33,East,90,0.0,0.0,83,0.00,CLR,,0.00,WeatherDisplay:10.37,2013-05-27 11:06:00,
2013-05-27 05:11:00,39.0,34.3,29.33,North,0,0.0,0.0,83,0.00,CLR,,0.00,WeatherDisplay:10.37,2013-05-27 11:11:00,
2013-05-27 05:16:00,39.2,34.5,29.33,North,0,0.0,0.0,83,0.00,CLR,,0.00,WeatherDisplay:10.37,2013-05-27 11:16:00,
2013-05-27 05:21:00,39.2,34.5,29.33,NNE,22,0.0,0.0,83,0.00,CLR,,0.00,WeatherDisplay:10.37,2013-05-27 11:21:00,
2013-05-27 05:26:00,39.4,34.6,29.33,North,0,0.0,0.0,83,0.00,CLR,,0.00,WeatherDisplay:10.37,2013-05-27 11:26:00,
2013-05-27 05:31:00,39.7,35.0,29.33,NNE,22,0.0,0.0,83,0.00,CLR,,0.00,WeatherDisplay:10.37,2013-05-27 11:31:00,
2013-05-27 05:36:00,39.7,35.0,29.33,North,0,0.0,0.0,83,0.00,CLR,,0.00,WeatherDisplay:10.37,2013-05-27 11:36:00,
2013-05-27 05:41:00,39.9,35.2,29.33,North,0,0.0,0.0,83,0.00,CLR,,0.00,WeatherDisplay:10.37,2013-05-27 11:41:00,
2013-05-27 05:46:00,39.9,35.2,29.33,SE,135,0.0,0.0,83,0.00,CLR,,0.00,WeatherDisplay:10.37,2013-05-27 11:46:00,
2013-05-27 05:51:00,39.9,35.2,29.33,ENE,68,0.0,0.0,83,0.00,CLR,,0.00,WeatherDisplay:10.37,2013-05-27 11:51:00,
2013-05-27 05:56:00,40.3,35.5,29.33,ENE,68,0.0,0.0,83,0.00,CLR,,0.00,WeatherDisplay:10.37,2013-05-27 11:56:00,
2013-05-27 06:01:00,40.5,35.7,29.33,ENE,68,0.0,0.0,83,0.00,CLR,,0.00,WeatherDisplay:10.37,2013-05-27 12:01:00,
2013-05-27 06:06:00,40.5,35.7,29.33,ENE,68,0.0,0.0,83,0.00,CLR,,0.00,WeatherDisplay:10.37,2013-05-27 12:06:00,
2013-05-27 06:11:00,40.5,35.7,29.33,ENE,68,0.0,0.0,83,0.00,CLR,,0.00,WeatherDisplay:10.37,2013-05-27 12:11:00,
2013-05-27 06:16:00,41.2,36.4,29.33,ENE,68,0.0,0.0,83,0.00,CLR,,0.00,WeatherDisplay:10.37,2013-05-27 12:16:00,
2013-05-27 06:21:00,41.2,36.4,29.33,ENE,68,0.0,0.0,83,0.00,CLR,,0.00,WeatherDisplay:10.37,2013-05-27 12:21:00,
2013-05-27 06:26:00,41.4,36.6,29.33,NNE,22,0.0,0.0,83,0.00,CLR,,0.00,WeatherDisplay:10.37,2013-05-27 12:26:00,
2013-05-27 06:31:00,41.5,36.8,29.33,NE,45,0.0,0.0,83,0.00,CLR,,0.00,WeatherDisplay:10.37,2013-05-27 12:31:00,
2013-05-27 06:36:00,41.5,36.8,29.33,NE,45,0.0,0.0,83,0.00,CLR,,0.00,WeatherDisplay:10.37,2013-05-27 12:36:00,
2013-05-27 06:41:00,41.5,36.8,29.33,NE,45,0.0,0.0,83,0.00,CLR,,0.00,WeatherDisplay:10.37,2013-05-27 12:41:00,
2013-05-27 06:46:00,41.9,37.1,29.33,ENE,68,0.0,0.0,83,0.00,CLR,,0.00,WeatherDisplay:10.37,2013-05-27 12:46:00,
2013-05-27 06:51:00,42.1,37.3,29.33,East,90,0.0,0.0,83,0.00,CLR,,0.00,WeatherDisplay:10.37,2013-05-27 12:51:00,
2013-05-27 06:56:00,42.3,37.5,29.33,East,90,0.0,0.0,83,0.00,CLR,,0.00,WeatherDisplay:10.37,2013-05-27 12:56:00,
2013-05-27 07:01:00,42.3,37.5,29.33,East,90,0.0,0.0,83,0.00,CLR,,0.00,WeatherDisplay:10.37,2013-05-27 13:01:00,
2013-05-27 07:06:00,42.6,37.8,29.33,East,90,0.0,0.0,83,0.00,CLR,,0.00,WeatherDisplay:10.37,2013-05-27 13:06:00,
2013-05-27 07:11:00,42.8,38.0,29.33,East,90,0.0,0.0,83,0.00,CLR,,0.00,WeatherDisplay:10.37,2013-05-27 13:11:00,
2013-05-27 07:16:00,43.0,38.2,29.33,East,90,0.0,0.0,83,0.00,CLR,,0.00,WeatherDisplay:10.37,2013-05-27 13:16:00,
2013-05-27 07:21:00,43.3,38.5,29.33,East,90,0.0,0.0,83,0.00,CLR,,0.00,WeatherDisplay:10.37,2013-05-27 13:21:00,
2013-05-27 07:26:00,43.5,38.7,29.33,North,0,0.0,0.0,83,0.00,CLR,,0.00,WeatherDisplay:10.37,2013-05-27 13:26:00,
2013-05-27 07:31:00,43.9,39.1,29.33,North,0,0.0,0.0,83,0.00,CLR,,0.00,WeatherDisplay:10.37,2013-05-27 13:31:00,
2013-05-27 07:36:00,44.4,39.6,29.33,North,0,0.0,0.0,83,0.00,CLR,,0.00,WeatherDisplay:10.37,2013-05-27 13:36:00,
2013-05-27 07:41:00,45.0,40.1,29.33,NE,45,0.0,0.0,83,0.00,CLR,,0.00,WeatherDisplay:10.37,2013-05-27 13:41:00,
2013-05-27 07:46:00,45.5,40.6,29.33,North,0,0.0,0.0,83,0.00,CLR,,0.00,WeatherDisplay:10.37,2013-05-27 13:46:00,
2013-05-27 07:51:00,45.7,40.8,29.33,North,0,0.0,0.0,83,0.00,CLR,,0.00,WeatherDisplay:10.37,2013-05-27 13:51:00,
2013-05-27 07:56:00,46.2,41.3,29.34,North,0,0.0,0.0,83,0.00,CLR,,0.00,WeatherDisplay:10.37,2013-05-27 13:56:00,
2013-05-27 08:01:00,46.4,41.5,29.34,North,0,0.0,0.0,83,0.00,CLR,,0.00,WeatherDisplay:10.37,2013-05-27 14:01:00,
2013-05-27 08:06:00,46.9,42.0,29.34,North,0,0.0,0.0,83,0.00,CLR,,0.00,WeatherDisplay:10.37,2013-05-27 14:06:00,
2013-05-27 08:11:00,46.9,41.7,29.34,North,0,0.0,0.0,82,0.00,CLR,,0.00,WeatherDisplay:10.37,2013-05-27 14:11:00,
2013-05-27 08:16:00,47.1,41.9,29.33,North,0,0.0,0.0,82,0.00,CLR,,0.00,WeatherDisplay:10.37,2013-05-27 14:16:00,
2013-05-27 08:21:00,47.3,42.1,29.33,North,0,0.0,0.0,82,0.00,CLR,,0.00,WeatherDisplay:10.37,2013-05-27 14:21:00,
2013-05-27 08:26:00,47.5,42.3,29.33,WNW,292,0.0,0.0,82,0.00,CLR,,0.00,WeatherDisplay:10.37,2013-05-27 14:26:00,
2013-05-27 08:31:00,48.0,42.8,29.33,SW,225,0.0,0.0,82,0.00,CLR,,0.00,WeatherDisplay:10.37,2013-05-27 14:31:00,
2013-05-27 08:36:00,48.2,43.0,29.33,WSW,248,0.0,0.0,82,0.00,CLR,,0.00,WeatherDisplay:10.37,2013-05-27 14:36:00,
2013-05-27 08:41:00,48.4,43.1,29.33,WSW,248,0.0,0.0,82,0.00,CLR,,0.00,WeatherDisplay:10.37,2013-05-27 14:41:00,
2013-05-27 08:46:00,48.4,43.1,29.33,SSW,202,0.0,0.0,82,0.00,CLR,,0.00,WeatherDisplay:10.37,2013-05-27 14:46:00,
2013-05-27 08:51:00,48.7,43.5,29.33,SW,225,0.0,0.0,82,0.00,CLR,,0.00,WeatherDisplay:10.37,2013-05-27 14:51:00,
2013-05-27 08:56:00,48.6,43.3,29.33,WSW,248,0.0,0.0,82,0.00,CLR,,0.00,WeatherDisplay:10.37,2013-05-27 14:56:00,
2013-05-27 09:01:00,48.9,43.7,29.33,WSW,248,0.0,0.0,82,0.00,CLR,,0.00,WeatherDisplay:10.37,2013-05-27 15:01:00,
2013-05-27 09:06:00,48.9,43.7,29.33,WSW,248,0.0,0.0,82,0.00,CLR,,0.00,WeatherDisplay:10.37,2013-05-27 15:06:00,
2013-05-27 09:11:00,49.3,44.0,29.33,WSW,248,0.0,0.0,82,0.00,CLR,,0.00,WeatherDisplay:10.37,2013-05-27 15:11:00,
2013-05-27 09:16:00,49.5,44.2,29.33,North,0,0.0,0.0,82,0.00,CLR,,0.00,WeatherDisplay:10.37,2013-05-27 15:16:00,
2013-05-27 09:21:00,49.8,44.5,29.33,North,0,0.0,0.0,82,0.00,CLR,,0.00,WeatherDisplay:10.37,2013-05-27 15:21:00,
2013-05-27 09:26:00,50.0,44.7,29.33,SW,225,0.0,0.0,82,0.00,CLR,,0.00,WeatherDisplay:10.37,2013-05-27 15:26:00,
2013-05-27 09:31:00,50.0,44.7,29.33,SW,225,0.0,0.0,82,0.00,CLR,,0.00,WeatherDisplay:10.37,2013-05-27 15:31:00,
2013-05-27 09:36:00,50.2,44.9,29.33,SW,225,0.0,0.0,82,0.00,CLR,,0.00,WeatherDisplay:10.37,2013-05-27 15:36:00,
2013-05-27 09:41:00,50.2,44.9,29.33,SSE,158,0.0,0.0,82,0.00,CLR,,0.00,WeatherDisplay:10.37,2013-05-27 15:41:00,
2013-05-27 09:46:00,50.2,44.6,29.33,ENE,68,0.0,0.0,81,0.00,CLR,,0.00,WeatherDisplay:10.37,2013-05-27 15:46:00,
2013-05-27 09:51:00,50.5,44.9,29.33,SSE,158,0.0,0.0,81,0.00,CLR,,0.00,WeatherDisplay:10.37,2013-05-27 15:51:00,
2013-05-27 09:56:00,50.5,44.9,29.33,South,180,0.0,0.0,81,0.00,CLR,,0.00,WeatherDisplay:10.37,2013-05-27 15:56:00,
2013-05-27 10:01:00,50.5,44.9,29.33,SSW,202,0.0,0.0,81,0.00,CLR,,0.00,WeatherDisplay:10.37,2013-05-27 16:01:00,
2013-05-27 10:06:00,50.9,45.3,29.33,SSW,202,0.0,0.0,81,0.00,CLR,,0.00,WeatherDisplay:10.37,2013-05-27 16:06:00,
2013-05-27 10:11:00,51.3,45.6,29.33,SSW,202,0.0,0.0,81,0.00,CLR,,0.00,WeatherDisplay:10.37,2013-05-27 16:11:00,
2013-05-27 10:16:00,51.4,45.8,29.32,NE,45,0.0,0.0,81,0.00,CLR,,0.00,WeatherDisplay:10.37,2013-05-27 16:16:00,
2013-05-27 10:21:00,51.4,45.8,29.32,East,90,0.0,0.0,81,0.00,CLR,,0.00,WeatherDisplay:10.37,2013-05-27 16:21:00,
2013-05-27 10:26:00,51.4,45.8,29.32,WSW,248,0.0,0.0,81,0.00,CLR,,0.00,WeatherDisplay:10.37,2013-05-27 16:26:00,
2013-05-27 10:31:00,51.4,45.5,29.32,NNW,338,0.0,0.0,80,0.00,CLR,,0.00,WeatherDisplay:10.37,2013-05-27 16:31:00,
2013-05-27 10:36:00,52.0,46.0,29.32,NNW,338,0.0,0.0,80,0.00,CLR,,0.00,WeatherDisplay:10.37,2013-05-27 16:36:00,
2013-05-27 10:41:00,52.0,46.0,29.32,East,90,0.0,0.0,80,0.00,CLR,,0.00,WeatherDisplay:10.37,2013-05-27 16:41:00,
2013-05-27 10:46:00,52.0,46.0,29.32,North,0,0.0,0.0,80,0.00,CLR,,0.00,WeatherDisplay:10.37,2013-05-27 16:46:00,
2013-05-27 10:51:00,52.0,46.0,29.32,NE,45,0.0,0.0,80,0.00,CLR,,0.00,WeatherDisplay:10.37,2013-05-27 16:51:00,
2013-05-27 10:56:00,52.0,46.0,29.32,ENE,68,0.0,0.0,80,0.00,CLR,,0.00,WeatherDisplay:10.37,2013-05-27 16:56:00,
2013-05-27 11:01:00,52.0,46.0,29.32,WNW,292,0.0,0.0,80,0.00,CLR,,0.00,WeatherDisplay:10.37,2013-05-27 17:01:00,
2013-05-27 11:06:00,52.3,46.4,29.32,WNW,292,0.0,0.0,80,0.00,CLR,,0.00,WeatherDisplay:10.37,2013-05-27 17:06:00,
2013-05-27 11:11:00,52.2,46.2,29.32,WNW,292,0.0,0.0,80,0.00,CLR,,0.00,WeatherDisplay:10.37,2013-05-27 17:11:00,
2013-05-27 11:16:00,52.3,46.4,29.32,WNW,292,0.0,0.0,80,0.00,CLR,,0.00,WeatherDisplay:10.37,2013-05-27 17:16:00,
2013-05-27 11:21:00,52.7,46.7,29.32,SW,225,0.0,0.0,80,0.00,CLR,,0.00,WeatherDisplay:10.37,2013-05-27 17:21:00,
2013-05-27 11:26:00,52.9,46.9,29.32,SE,135,0.0,0.0,80,0.00,CLR,,0.00,WeatherDisplay:10.37,2013-05-27 17:26:00,
2013-05-27 11:31:00,53.2,47.2,29.32,North,0,0.0,0.0,80,0.00,CLR,,0.00,WeatherDisplay:10.37,2013-05-27 17:31:00,
2013-05-27 11:36:00,53.4,47.1,29.34,NNW,338,0.0,0.0,79,0.00,CLR,,0.00,WeatherDisplay:10.37,2013-05-27 17:36:00,
2013-05-27 11:41:00,53.8,47.4,29.34,NNW,338,0.0,0.0,79,0.00,CLR,,0.00,WeatherDisplay:10.37,2013-05-27 17:41:00,
2013-05-27 11:46:00,54.1,47.8,29.34,North,0,0.0,0.0,79,0.00,CLR,,0.00,WeatherDisplay:10.37,2013-05-27 17:46:00,
2013-05-27 11:51:00,54.5,48.1,29.34,North,0,0.0,0.0,79,0.00,CLR,,0.00,WeatherDisplay:10.37,2013-05-27 17:51:00,
2013-05-27 11:56:00,54.3,47.6,29.38,NE,45,0.0,0.0,78,0.00,CLR,,0.00,WeatherDisplay:10.37,2013-05-27 17:56:00,
2013-05-27 12:01:00,54.7,48.0,29.38,NE,45,0.0,0.0,78,0.00,CLR,,0.00,WeatherDisplay:10.37,2013-05-27 18:01:00,
2013-05-27 12:06:00,54.7,48.0,29.38,NE,45,0.0,0.0,78,0.00,CLR,,0.00,WeatherDisplay:10.37,2013-05-27 18:06:00,
2013-05-27 12:11:00,55.6,48.8,29.38,NE,45,0.0,0.0,78,0.00,CLR,,0.00,WeatherDisplay:10.37,2013-05-27 18:11:00,
2013-05-27 12:16:00,55.9,49.2,29.38,NNW,338,0.0,0.0,78,0.00,CLR,,0.00,WeatherDisplay:10.37,2013-05-27 18:16:00,
2013-05-27 12:21:00,57.0,49.9,29.38,NNW,338,0.0,0.0,77,0.00,CLR,,0.00,WeatherDisplay:10.37,2013-05-27 18:21:00,
2013-05-27 12:26:00,57.7,50.2,29.38,NW,315,0.0,0.0,76,0.00,CLR,,0.00,WeatherDisplay:10.37,2013-05-27 18:26:00,
2013-05-27 12:31:00,58.5,50.6,29.38,NNW,338,0.0,0.0,75,0.00,CLR,,0.00,WeatherDisplay:10.37,2013-05-27 18:31:00,
2013-05-27 12:36:00,58.8,50.9,29.38,NW,315,0.0,0.0,75,0.00,CLR,,0.00,WeatherDisplay:10.37,2013-05-27 18:36:00,
2013-05-27 12:41:00,59.5,51.2,29.38,NNW,338,0.0,0.0,74,0.00,CLR,,0.00,WeatherDisplay:10.37,2013-05-27 18:41:00,
2013-05-27 12:46:00,59.9,51.6,29.38,North,0,0.0,0.0,74,0.00,CLR,,0.00,WeatherDisplay:10.37,2013-05-27 18:46:00,
2013-05-27 12:51:00,59.5,50.9,29.38,NW,315,0.0,0.0,73,0.00,CLR,,0.00,WeatherDisplay:10.37,2013-05-27 18:51:00,
2013-05-27 12:56:00,59.7,50.3,29.37,NW,315,0.0,0.0,71,0.00,CLR,,0.00,WeatherDisplay:10.37,2013-05-27 18:56:00,
2013-05-27 13:01:00,59.9,50.8,29.37,NNW,338,0.0,0.0,72,0.00,CLR,,0.00,WeatherDisplay:10.37,2013-05-27 19:01:00,
2013-05-27 13:06:00,60.1,51.0,29.37,WNW,292,0.0,0.0,72,0.00,CLR,,0.00,WeatherDisplay:10.37,2013-05-27 19:06:00,
2013-05-27 13:11:00,60.3,50.8,29.37,North,0,0.0,0.0,71,0.00,CLR,,0.00,WeatherDisplay:10.37,2013-05-27 19:11:00,
2013-05-27 13:16:00,60.3,50.8,29.36,NNW,338,0.0,0.0,71,0.00,CLR,,0.00,WeatherDisplay:10.37,2013-05-27 19:16:00,
2013-05-27 13:21:00,60.3,50.4,29.36,NNW,338,0.0,0.0,70,0.00,CLR,,0.00,WeatherDisplay:10.37,2013-05-27 19:21:00,
2013-05-27 13:26:00,60.3,50.4,29.36,NW,315,0.0,0.0,70,0.00,CLR,,0.00,WeatherDisplay:10.37,2013-05-27 19:26:00,
2013-05-27 13:31:00,60.3,50.4,29.36,NW,315,0.0,0.0,70,0.00,CLR,,0.00,WeatherDisplay:10.37,2013-05-27 19:31:00,
2013-05-27 13:36:00,60.6,50.4,29.36,NW,315,0.0,0.0,69,0.00,CLR,,0.00,WeatherDisplay:10.37,2013-05-27 19:36:00,
2013-05-27 13:41:00,60.4,49.8,29.36,WNW,292,0.0,0.0,68,0.00,CLR,,0.00,WeatherDisplay:10.37,2013-05-27 19:41:00,
2013-05-27 13:46:00,60.6,49.6,29.36,WSW,248,0.0,0.0,67,0.00,CLR,,0.00,WeatherDisplay:10.37,2013-05-27 19:46:00,
2013-05-27 13:51:00,60.8,49.4,29.36,SW,225,0.0,0.0,66,0.00,CLR,,0.00,WeatherDisplay:10.37,2013-05-27 19:51:00,
2013-05-27 13:56:00,61.3,49.9,29.35,NW,315,0.0,0.0,66,0.00,CLR,,0.00,WeatherDisplay:10.37,2013-05-27 19:56:00,
2013-05-27 14:01:00,61.9,50.4,29.35,NW,315,0.0,0.0,66,0.00,CLR,,0.00,WeatherDisplay:10.37,2013-05-27 20:01:00,
2013-05-27 14:06:00,61.9,50.0,29.35,WNW,292,0.0,0.0,65,0.00,CLR,,0.00,WeatherDisplay:10.37,2013-05-27 20:06:00,
2013-05-27 14:11:00,61.5,49.6,29.35,SSE,158,0.0,0.0,65,0.00,CLR,,0.00,WeatherDisplay:10.37,2013-05-27 20:11:00,
2013-05-27 14:16:00,61.5,49.2,29.36,WSW,248,0.0,0.0,64,0.00,CLR,,0.00,WeatherDisplay:10.37,2013-05-27 20:16:00,
2013-05-27 14:21:00,61.7,49.4,29.36,NW,315,0.0,0.0,64,0.00,CLR,,0.00,WeatherDisplay:10.37,2013-05-27 20:21:00,
2013-05-27 14:26:00,61.9,49.6,29.36,WSW,248,0.0,0.0,64,0.00,CLR,,0.00,WeatherDisplay:10.37,2013-05-27 20:26:00,
2013-05-27 14:31:00,62.1,48.9,29.36,WNW,292,0.0,0.0,62,0.00,CLR,,0.00,WeatherDisplay:10.37,2013-05-27 20:31:00,
2013-05-27 14:36:00,62.4,49.7,29.34,WNW,292,0.0,0.0,63,0.00,CLR,,0.00,WeatherDisplay:10.37,2013-05-27 20:36:00,
2013-05-27 14:41:00,63.3,50.5,29.34,NW,315,0.0,0.0,63,0.00,CLR,,0.00,WeatherDisplay:10.37,2013-05-27 20:41:00,
2013-05-27 14:46:00,63.7,50.0,29.34,SW,225,0.0,0.0,61,0.00,CLR,,0.00,WeatherDisplay:10.37,2013-05-27 20:46:00,
2013-05-27 14:51:00,63.5,47.5,29.34,SW,225,0.0,0.0,56,0.00,CLR,,0.00,WeatherDisplay:10.37,2013-05-27 20:51:00,
2013-05-27 14:56:00,63.5,48.0,29.33,WSW,248,0.0,0.0,57,0.00,CLR,,0.00,WeatherDisplay:10.37,2013-05-27 20:56:00,
2013-05-27 15:01:00,63.5,48.0,29.33,SSE,158,0.0,0.0,57,0.00,CLR,,0.00,WeatherDisplay:10.37,2013-05-27 21:01:00,
2013-05-27 15:06:00,63.0,47.5,29.33,North,0,7.4,7.4,57,0.00,CLR,,0.00,WeatherDisplay:10.37,2013-05-27 21:06:00,
2013-05-27 15:11:00,62.2,48.2,29.33,SSW,202,5.8,5.8,60,0.00,CLR,,0.00,WeatherDisplay:10.37,2013-05-27 21:11:00,
2013-05-27 15:16:00,62.1,48.4,29.33,West,270,8.2,8.2,61,0.00,CLR,,0.00,WeatherDisplay:10.37,2013-05-27 21:16:00,
2013-05-27 15:21:00,61.0,47.9,29.33,WNW,292,2.3,3.6,62,0.00,CLR,,0.00,WeatherDisplay:10.37,2013-05-27 21:21:00,
2013-05-27 15:27:00,60.1,47.0,29.33,SSW,202,2.3,2.6,62,0.00,CLR,,0.00,WeatherDisplay:10.37,2013-05-27 21:27:00,
2013-05-27 15:32:00,59.0,46.4,29.33,WSW,248,2.3,2.3,63,0.00,CLR,,0.00,WeatherDisplay:10.37,2013-05-27 21:32:00,
2013-05-27 15:37:00,58.8,46.7,29.31,SSW,202,3.6,3.6,64,0.00,CLR,,0.00,WeatherDisplay:10.37,2013-05-27 21:37:00,
2013-05-27 15:42:00,59.2,47.0,29.31,SSW,202,0.0,1.3,64,0.00,CLR,,0.00,WeatherDisplay:10.37,2013-05-27 21:42:00,
2013-05-27 15:47:00,59.4,47.6,29.31,ESE,112,0.0,1.0,65,0.00,CLR,,0.00,WeatherDisplay:10.37,2013-05-27 21:47:00,
2013-05-27 15:52:00,59.7,47.9,29.31,South,180,5.8,5.8,65,0.00,CLR,,0.00,WeatherDisplay:10.37,2013-05-27 21:52:00,
2013-05-27 15:57:00,60.1,47.9,29.32,East,90,3.5,3.5,64,0.00,CLR,,0.00,WeatherDisplay:10.37,2013-05-27 21:57:00,
2013-05-27 16:02:00,59.7,47.5,29.32,SSE,158,4.9,4.9,64,0.00,CLR,,0.00,WeatherDisplay:10.37,2013-05-27 22:02:00,
2013-05-27 16:07:00,59.9,47.3,29.32,WNW,292,6.9,6.9,63,0.00,CLR,,0.00,WeatherDisplay:10.37,2013-05-27 22:07:00,
2013-05-27 16:12:00,59.5,47.3,29.32,SSE,158,3.5,3.5,64,0.00,CLR,,0.00,WeatherDisplay:10.37,2013-05-27 22:12:00,
2013-05-27 16:17:00,59.5,47.3,29.32,WSW,248,0.0,2.2,64,0.00,CLR,,0.00,WeatherDisplay:10.37,2013-05-27 22:17:00,
2013-05-27 16:22:00,59.4,47.2,29.32,WSW,248,0.0,1.2,64,0.00,CLR,,0.00,WeatherDisplay:10.37,2013-05-27 22:22:00,
2013-05-27 16:27:00,59.4,47.2,29.32,SSW,202,4.6,4.6,64,0.00,CLR,,0.00,WeatherDisplay:10.37,2013-05-27 22:27:00,
2013-05-27 16:32:00,59.2,47.0,29.32,ENE,68,0.0,0.8,64,0.00,CLR,,0.00,WeatherDisplay:10.37,2013-05-27 22:32:00,
2013-05-27 16:37:00,59.0,46.8,29.31,SW,225,3.5,3.5,64,0.00,CLR,,0.00,WeatherDisplay:10.37,2013-05-27 22:37:00,
2013-05-27 16:42:00,59.0,46.8,29.31,SSW,202,2.3,2.3,64,0.00,CLR,,0.00,WeatherDisplay:10.37,2013-05-27 22:42:00,
2013-05-27 16:47:00,59.5,46.9,29.31,SSW,202,4.6,4.6,63,0.00,CLR,,0.00,WeatherDisplay:10.37,2013-05-27 22:47:00,
2013-05-27 16:52:00,59.9,47.7,29.31,SE,135,0.0,2.0,64,0.00,CLR,,0.00,WeatherDisplay:10.37,2013-05-27 22:52:00,
2013-05-27 16:57:00,60.4,47.4,29.31,NNW,338,5.8,5.8,62,0.00,CLR,,0.00,WeatherDisplay:10.37,2013-05-27 22:57:00,
2013-05-27 17:02:00,60.4,47.8,29.31,WSW,248,1.2,1.2,63,0.00,CLR,,0.00,WeatherDisplay:10.37,2013-05-27 23:02:00,
2013-05-27 17:07:00,60.6,47.5,29.31,SSE,158,0.0,1.0,62,0.00,CLR,,0.00,WeatherDisplay:10.37,2013-05-27 23:07:00,
2013-05-27 17:12:00,60.8,47.7,29.31,East,90,0.0,0.5,62,0.00,CLR,,0.00,WeatherDisplay:10.37,2013-05-27 23:12:00,
2013-05-27 17:17:00,60.8,47.7,29.30,SE,135,5.8,5.8,62,0.00,CLR,,0.00,WeatherDisplay:10.37,2013-05-27 23:17:00,
2013-05-27 17:22:00,61.0,47.9,29.30,NE,45,1.2,1.2,62,0.00,CLR,,0.00,WeatherDisplay:10.37,2013-05-27 23:22:00,
2013-05-27 17:27:00,61.0,47.4,29.30,SW,225,0.0,0.5,61,0.00,CLR,,0.00,WeatherDisplay:10.37,2013-05-27 23:27:00,
2013-05-27 17:32:00,61.2,48.0,29.30,South,180,0.0,0.2,62,0.00,CLR,,0.00,WeatherDisplay:10.37,2013-05-27 23:32:00,
2013-05-27 17:37:00,61.0,47.0,29.28,WSW,248,0.0,0.0,60,0.00,CLR,,0.00,WeatherDisplay:10.37,2013-05-27 23:37:00,
2013-05-27 17:42:00,61.2,47.6,29.28,WSW,248,0.0,0.0,61,0.00,CLR,,0.00,WeatherDisplay:10.37,2013-05-27 23:42:00,
2013-05-27 17:47:00,61.2,47.2,29.28,WNW,292,0.0,0.0,60,0.00,CLR,,0.00,WeatherDisplay:10.37,2013-05-27 23:47:00,
2013-05-27 17:52:00,61.0,47.0,29.28,SSW,202,0.0,0.0,60,0.00,CLR,,0.00,WeatherDisplay:10.37,2013-05-27 23:52:00,
2013-05-27 17:57:00,61.0,47.0,29.28,SE,135,2.3,2.3,60,0.00,CLR,,0.00,WeatherDisplay:10.37,2013-05-27 23:57:00,
2013-05-27 18:02:00,61.0,47.4,29.28,SSW,202,3.5,3.5,61,0.00,CLR,,0.00,WeatherDisplay:10.37,2013-05-28 00:02:00,
2013-05-27 18:07:00,61.2,47.6,29.28,WSW,248,0.0,1.7,61,0.00,CLR,,0.00,WeatherDisplay:10.37,2013-05-28 00:07:00,
2013-05-27 18:12:00,61.0,47.0,29.28,SW,225,0.0,1.2,60,0.00,CLR,,0.00,WeatherDisplay:10.37,2013-05-28 00:12:00,
2013-05-27 18:17:00,61.3,47.3,29.28,SW,225,0.0,0.1,60,0.00,CLR,,0.00,WeatherDisplay:10.37,2013-05-28 00:17:00,
2013-05-27 18:22:00,61.2,47.2,29.28,SSW,202,0.0,0.3,60,0.00,CLR,,0.00,WeatherDisplay:10.37,2013-05-28 00:22:00,
2013-05-27 18:27:00,60.8,46.8,29.28,SSW,202,4.6,4.6,60,0.00,CLR,,0.00,WeatherDisplay:10.37,2013-05-28 00:27:00,
2013-05-27 18:32:00,61.0,46.5,29.28,WSW,248,0.0,1.3,59,0.00,CLR,,0.00,WeatherDisplay:10.37,2013-05-28 00:32:00,
2013-05-27 18:37:00,60.8,46.8,29.25,ESE,112,0.0,0.3,60,0.00,CLR,,0.00,WeatherDisplay:10.37,2013-05-28 00:37:00,
2013-05-27 18:42:00,61.3,47.3,29.25,WSW,248,0.0,0.0,60,0.00,CLR,,0.00,WeatherDisplay:10.37,2013-05-28 00:42:00,
2013-05-27 18:47:00,61.5,46.6,29.25,ENE,68,2.3,2.3,58,0.00,CLR,,0.00,WeatherDisplay:10.37,2013-05-28 00:47:00,
2013-05-27 18:52:00,61.3,46.9,29.25,SE,135,0.0,0.8,59,0.00,CLR,,0.00,WeatherDisplay:10.37,2013-05-28 00:52:00,
2013-05-27 18:57:00,61.3,46.9,29.27,SSW,202,3.5,3.5,59,0.00,CLR,,0.00,WeatherDisplay:10.37,2013-05-28 00:57:00,
2013-05-27 19:02:00,61.3,46.9,29.27,SSE,158,0.0,0.9,59,0.00,CLR,,0.00,WeatherDisplay:10.37,2013-05-28 01:02:00,
2013-05-27 19:07:00,61.2,46.7,29.27,WNW,292,3.5,3.5,59,0.00,CLR,,0.00,WeatherDisplay:10.37,2013-05-28 01:07:00,
2013-05-27 19:12:00,61.3,46.4,29.27,SSW,202,0.0,0.9,58,0.00,CLR,,0.00,WeatherDisplay:10.37,2013-05-28 01:12:00,
2013-05-27 19:17:00,61.5,46.6,29.26,SSW,202,1.2,1.2,58,0.00,CLR,,0.00,WeatherDisplay:10.37,2013-05-28 01:17:00,
2013-05-27 19:22:00,62.1,47.1,29.26,WSW,248,4.6,4.6,58,0.00,CLR,,0.00,WeatherDisplay:10.37,2013-05-28 01:22:00,
2013-05-27 19:27:00,62.1,47.1,29.26,SW,225,0.0,0.6,58,0.00,CLR,,0.00,WeatherDisplay:10.37,2013-05-28 01:27:00,
2013-05-27 19:32:00,61.5,47.1,29.26,SSE,158,0.0,0.3,59,0.00,CLR,,0.00,WeatherDisplay:10.37,2013-05-28 01:32:00,
2013-05-27 19:37:00,61.3,46.9,29.21,East,90,1.2,1.2,59,0.00,CLR,,0.00,WeatherDisplay:10.37,2013-05-28 01:37:00,
2013-05-27 19:42:00,60.8,46.4,29.21,East,90,0.0,0.6,59,0.00,CLR,,0.00,WeatherDisplay:10.37,2013-05-28 01:42:00,
2013-05-27 19:47:00,60.4,46.5,29.21,ESE,112,2.3,2.3,60,0.00,CLR,,0.00,WeatherDisplay:10.37,2013-05-28 01:47:00,
2013-05-27 19:52:00,60.3,46.8,29.21,East,90,2.3,2.3,61,0.00,CLR,,0.00,WeatherDisplay:10.37,2013-05-28 01:52:00,
2013-05-27 19:57:00,59.9,46.4,29.19,East,90,1.2,1.5,61,0.00,CLR,,0.00,WeatherDisplay:10.37,2013-05-28 01:57:00,
2013-05-27 20:02:00,59.5,46.1,29.19,East,90,0.0,1.0,61,0.00,CLR,,0.00,WeatherDisplay:10.37,2013-05-28 02:02:00,
2013-05-27 20:07:00,59.2,46.2,29.19,NW,315,0.0,0.1,62,0.00,CLR,,0.00,WeatherDisplay:10.37,2013-05-28 02:07:00,
2013-05-27 20:12:00,59.0,46.4,29.19,NNW,338,0.0,0.0,63,0.00,CLR,,0.00,WeatherDisplay:10.37,2013-05-28 02:12:00,
2013-05-27 20:17:00,58.6,46.1,29.20,NE,45,0.0,0.0,63,0.00,CLR,,0.00,WeatherDisplay:10.37,2013-05-28 02:17:00,
2013-05-27 20:22:00,58.6,46.5,29.20,NNE,22,0.0,0.0,64,0.00,CLR,,0.00,WeatherDisplay:10.37,2013-05-28 02:22:00,
2013-05-27 20:27:00,58.5,45.9,29.20,NE,45,2.3,2.3,63,0.00,CLR,,0.00,WeatherDisplay:10.37,2013-05-28 02:27:00,
2013-05-27 20:32:00,58.1,45.6,29.20,North,0,3.5,3.5,63,0.00,CLR,,0.00,WeatherDisplay:10.37,2013-05-28 02:32:00,
2013-05-27 20:37:00,57.7,44.8,29.21,North,0,0.0,0.5,62,0.00,CLR,,0.00,WeatherDisplay:10.37,2013-05-28 02:37:00,
2013-05-27 20:42:00,57.6,44.6,29.21,North,0,0.0,0.2,62,0.00,CLR,,0.00,WeatherDisplay:10.37,2013-05-28 02:42:00,
2013-05-27 20:47:00,57.0,44.1,29.21,WNW,292,1.2,1.2,62,0.00,CLR,,0.00,WeatherDisplay:10.37,2013-05-28 02:47:00,
2013-05-27 20:52:00,56.7,43.8,29.21,ESE,112,0.0,0.5,62,0.00,CLR,,0.00,WeatherDisplay:10.37,2013-05-28 02:52:00,
2013-05-27 20:57:00,56.1,43.7,29.21,SW,225,0.0,0.0,63,0.00,CLR,,0.00,WeatherDisplay:10.37,2013-05-28 02:57:00,
2013-05-27 21:02:00,55.0,45.4,29.21,West,270,0.0,0.0,70,0.00,CLR,,0.00,WeatherDisplay:10.37,2013-05-28 03:02:00,
2013-05-27 21:07:00,54.3,45.8,29.21,NNW,338,0.0,0.0,73,0.00,CLR,,0.00,WeatherDisplay:10.37,2013-05-28 03:07:00,
2013-05-27 21:12:00,54.0,45.1,29.21,North,0,0.0,0.0,72,0.00,CLR,,0.00,WeatherDisplay:10.37,2013-05-28 03:12:00,
2013-05-27 21:17:00,53.6,44.8,29.20,North,0,0.0,0.0,72,0.00,CLR,,0.00,WeatherDisplay:10.37,2013-05-28 03:17:00,
2013-05-27 21:22:00,53.2,44.1,29.20,North,0,0.0,0.0,71,0.00,CLR,,0.00,WeatherDisplay:10.37,2013-05-28 03:22:00,
2013-05-27 21:27:00,53.4,44.2,29.20,East,90,2.6,2.6,71,0.00,CLR,,0.00,WeatherDisplay:10.37,2013-05-28 03:27:00,
2013-05-27 21:32:00,52.9,43.4,29.20,NE,45,2.3,2.3,70,0.00,CLR,,0.00,WeatherDisplay:10.37,2013-05-28 03:32:00,
2013-05-27 21:37:00,52.5,43.0,29.20,South,180,2.3,2.3,70,0.00,CLR,,0.00,WeatherDisplay:10.37,2013-05-28 03:37:00,
2013-05-27 21:42:00,52.3,42.8,29.20,ESE,112,3.1,3.1,70,0.00,CLR,,0.00,WeatherDisplay:10.37,2013-05-28 03:42:00,
2013-05-27 21:47:00,52.2,42.7,29.20,SSE,158,0.0,1.2,70,0.00,CLR,,0.00,WeatherDisplay:10.37,2013-05-28 03:47:00,
2013-05-27 21:52:00,51.8,42.3,29.20,East,90,2.3,2.3,70,0.00,CLR,,0.00,WeatherDisplay:10.37,2013-05-28 03:52:00,
2013-05-27 21:57:00,51.8,42.3,29.21,SSW,202,2.3,2.3,70,0.00,CLR,,0.00,WeatherDisplay:10.37,2013-05-28 03:57:00,
2013-05-27 22:01:00,51.4,42.0,29.21,WSW,248,0.0,0.8,70,0.00,CLR,,0.00,WeatherDisplay:10.37,2013-05-28 04:01:00,
2013-05-27 22:02:00,51.4,42.0,29.21,WSW,248,0.0,0.5,70,0.00,CLR,,0.00,WeatherDisplay:10.37,2013-05-28 04:02:00,
2013-05-27 22:04:00,51.3,42.2,29.21,South,180,0.0,0.1,71,0.00,CLR,,0.00,WeatherDisplay:10.37,2013-05-28 04:04:00,
2013-05-27 22:09:00,51.3,42.2,29.21,SSW,202,1.2,0.0,71,0.00,CLR,,0.00,WeatherDisplay:10.37,2013-05-28 04:09:00,
2013-05-27 22:14:00,50.9,41.8,29.21,ESE,112,0.0,0.2,71,0.00,CLR,,0.00,WeatherDisplay:10.37,2013-05-28 04:14:00,
2013-05-27 22:19:00,50.5,41.5,29.21,SSW,202,0.0,0.2,71,0.00,CLR,,0.00,WeatherDisplay:10.37,2013-05-28 04:19:00,
2013-05-27 22:24:00,50.2,41.5,29.21,East,90,0.0,0.0,72,0.00,CLR,,0.00,WeatherDisplay:10.37,2013-05-28 04:24:00,
2013-05-27 22:29:00,50.0,41.3,29.21,North,0,0.0,0.0,72,0.00,CLR,,0.00,WeatherDisplay:10.37,2013-05-28 04:29:00,
2013-05-27 22:34:00,49.8,41.2,29.21,NNE,22,0.0,0.0,72,0.00,CLR,,0.00,WeatherDisplay:10.37,2013-05-28 04:34:00,
2013-05-27 22:39:00,49.6,41.0,29.21,NNE,22,0.0,0.0,72,0.00,CLR,,0.00,WeatherDisplay:10.37,2013-05-28 04:39:00,
2013-05-27 22:44:00,49.3,40.6,29.21,NE,45,0.0,0.0,72,0.00,CLR,,0.00,WeatherDisplay:10.37,2013-05-28 04:44:00,
2013-05-27 22:49:00,49.3,40.6,29.21,NE,45,0.0,0.0,72,0.00,CLR,,0.00,WeatherDisplay:10.37,2013-05-28 04:49:00,
2013-05-27 22:54:00,49.1,40.5,29.21,North,0,0.0,0.0,72,0.00,CLR,,0.00,WeatherDisplay:10.37,2013-05-28 04:54:00,
2013-05-27 22:59:00,49.1,40.5,29.20,NNE,22,0.0,0.0,72,0.00,CLR,,0.00,WeatherDisplay:10.37,2013-05-28 04:59:00,
2013-05-27 23:04:00,48.6,39.9,29.20,SSW,202,0.0,0.0,72,0.00,CLR,,0.00,WeatherDisplay:10.37,2013-05-28 05:04:00,
2013-05-27 23:09:00,48.6,40.3,29.20,SSW,202,0.0,0.0,73,0.00,CLR,,0.00,WeatherDisplay:10.37,2013-05-28 05:09:00,
2013-05-27 23:14:00,48.2,39.9,29.20,NE,45,0.0,0.0,73,0.00,CLR,,0.00,WeatherDisplay:10.37,2013-05-28 05:14:00,
2013-05-27 23:19:00,48.4,40.1,29.20,NE,45,0.0,0.0,73,0.00,CLR,,0.00,WeatherDisplay:10.37,2013-05-28 05:19:00,
2013-05-27 23:24:00,48.0,39.8,29.20,NE,45,0.0,0.0,73,0.00,CLR,,0.00,WeatherDisplay:10.37,2013-05-28 05:24:00,
2013-05-27 23:29:00,48.0,39.8,29.20,NE,45,0.0,0.0,73,0.00,CLR,,0.00,WeatherDisplay:10.37,2013-05-28 05:29:00,
2013-05-27 23:34:00,47.8,39.6,29.20,NE,45,0.0,0.0,73,0.00,CLR,,0.00,WeatherDisplay:10.37,2013-05-28 05:34:00,
2013-05-27 23:39:00,47.8,39.6,29.20,NE,45,0.0,0.0,73,0.00,CLR,,0.00,WeatherDisplay:10.37,2013-05-28 05:39:00,
2013-05-27 23:44:00,47.7,39.4,29.20,NE,45,0.0,0.0,73,0.00,CLR,,0.00,WeatherDisplay:10.37,2013-05-28 05:44:00,
2013-05-27 23:49:00,47.7,39.4,29.20,North,0,0.0,0.0,73,0.00,CLR,,0.00,WeatherDisplay:10.37,2013-05-28 05:49:00,
2013-05-27 23:54:00,47.7,39.4,29.20,North,0,0.0,0.0,73,0.00,CLR,,0.00,WeatherDisplay:10.37,2013-05-28 05:54:00,
2013-05-27 23:59:00,47.5,39.3,29.19,NE,45,0.0,0.0,73,0.00,CLR,,0.00,WeatherDisplay:10.37,2013-05-28 05:59:00,